createdAt,value
2022-09-12T00:01:37.353Z,6.28
2022-09-12T00:04:05.440Z,4.10
2022-09-12T00:06:34.390Z,6.25
2022-09-12T00:09:03.447Z,6.18
2022-09-12T00:11:32.872Z,6.43
2022-09-12T00:14:01.496Z,4.80
2022-09-12T00:16:30.357Z,5.45
2022-09-12T00:18:58.553Z,7.30
2022-09-12T00:21:26.624Z,5.50
2022-09-12T00:23:54.652Z,4.70
2022-09-12T00:26:22.711Z,6.15
2022-09-12T00:28:52.200Z,4.57
2022-09-12T00:31:21.730Z,4.18
2022-09-12T00:33:49.811Z,6.18
2022-09-12T00:36:19.439Z,6.75
2022-09-12T00:38:47.608Z,4.45
2022-09-12T00:41:17.540Z,5.82
2022-09-12T00:43:46.313Z,6.25
2022-09-12T00:46:22.237Z,7.30
2022-09-12T00:48:51.534Z,4.90
2022-09-12T00:51:19.725Z,3.80
2022-09-12T00:53:48.011Z,5.07
2022-09-12T00:56:16.547Z,6.03
2022-09-12T00:58:45.790Z,5.57
2022-09-12T01:01:14.034Z,5.65
2022-09-12T01:03:43.540Z,7.45
2022-09-12T01:06:16.480Z,4.20
2022-09-12T01:08:44.829Z,3.40
2022-09-12T01:11:13.207Z,5.13
2022-09-12T01:13:41.382Z,5.45
2022-09-12T01:16:09.524Z,4.18
2022-09-12T01:18:48.964Z,4.32
2022-09-12T01:21:20.361Z,5.22
2022-09-12T01:24:20.548Z,3.65
2022-09-12T01:27:15.890Z,5.15
2022-09-12T01:30:05.308Z,4.40
2022-09-12T01:32:40.225Z,4.90
2022-09-12T01:35:12.562Z,3.92
2022-09-12T01:37:42.273Z,5.45
2022-09-12T01:40:15.922Z,6.22
2022-09-12T01:42:47.006Z,3.97
2022-09-12T01:45:17.922Z,4.35
2022-09-12T01:47:47.843Z,3.08
2022-09-12T01:50:17.528Z,3.35
2022-09-12T01:52:48.229Z,6.90
2022-09-12T01:55:19.123Z,4.05
2022-09-12T01:57:50.260Z,5.00
2022-09-12T02:00:18.366Z,5.45
2022-09-12T02:02:50.619Z,8.18
2022-09-12T02:05:20.520Z,4.00
2022-09-12T02:07:49.857Z,2.40
2022-09-12T02:10:19.188Z,4.70
2022-09-12T02:12:49.857Z,5.57
2022-09-12T02:15:19.527Z,3.22
2022-09-12T02:17:50.638Z,3.58
2022-09-12T02:20:37.414Z,4.35
2022-09-12T02:23:11.133Z,3.47
2022-09-12T02:25:39.679Z,3.33
2022-09-12T02:28:10.007Z,4.43
2022-09-12T02:30:41.048Z,2.92
2022-09-12T02:33:13.307Z,3.15
2022-09-12T02:35:44.880Z,3.95
2022-09-12T02:38:14.357Z,6.07
2022-09-12T02:40:42.368Z,3.53
2022-09-12T02:43:10.440Z,5.45
2022-09-12T02:45:38.575Z,3.33
2022-09-12T02:48:09.111Z,6.97
2022-09-12T02:50:38.643Z,5.40
2022-09-12T02:53:06.752Z,3.75
2022-09-12T02:55:35.389Z,4.20
2022-09-12T02:58:03.506Z,2.53
2022-09-12T03:00:32.656Z,3.85
2022-09-12T03:03:20.776Z,3.13
2022-09-12T03:05:53.639Z,2.58
2022-09-12T03:08:45.255Z,2.70
2022-09-12T03:11:28.880Z,3.85
2022-09-12T03:14:02.951Z,3.92
2022-09-12T03:16:35.783Z,3.33
2022-09-12T03:19:07.462Z,7.28
2022-09-12T03:21:39.026Z,5.38
2022-09-12T03:24:12.754Z,3.40
2022-09-12T03:26:43.595Z,4.72
2022-09-12T03:29:11.664Z,3.28
2022-09-12T03:31:40.869Z,2.75
2022-09-12T03:34:13.107Z,2.97
2022-09-12T03:36:43.725Z,6.57
2022-09-12T03:39:11.831Z,3.70
2022-09-12T03:41:39.931Z,4.07
2022-09-12T03:44:07.968Z,3.72
2022-09-12T03:46:36.079Z,3.97
2022-09-12T03:49:04.170Z,2.63
2022-09-12T03:51:32.469Z,2.78
2022-09-12T03:54:01.902Z,3.22
2022-09-12T03:56:30.383Z,2.95
2022-09-12T03:58:58.467Z,2.85
2022-09-12T04:01:26.611Z,4.78
2022-09-12T04:03:54.698Z,4.25
2022-09-12T04:06:23.295Z,4.03
2022-09-12T04:08:51.911Z,3.72
2022-09-12T04:11:21.991Z,5.72
2022-09-12T04:13:50.049Z,5.40
2022-09-12T04:16:18.702Z,2.45
2022-09-12T04:18:47.017Z,4.90
2022-09-12T04:21:15.927Z,6.13
2022-09-12T04:23:44.073Z,3.95
2022-09-12T04:26:13.621Z,6.78
2022-09-12T04:28:43.418Z,2.78
2022-09-12T04:31:13.876Z,6.00
2022-09-12T04:33:41.989Z,8.32
2022-09-12T04:36:11.221Z,6.95
2022-09-12T04:38:39.512Z,5.72
2022-09-12T04:41:13.748Z,8.15
2022-09-12T04:43:43.346Z,8.65
2022-09-12T04:46:12.443Z,10.50
2022-09-12T04:48:40.615Z,9.88
2022-09-12T04:51:10.103Z,11.63
2022-09-12T04:53:38.592Z,12.88
2022-09-12T04:56:07.105Z,15.88
2022-09-12T04:58:35.346Z,14.95
2022-09-12T05:01:09.009Z,15.90
2022-09-12T05:03:38.945Z,13.20
2022-09-12T05:06:08.046Z,18.05
2022-09-12T05:08:36.367Z,20.88
2022-09-12T05:11:04.751Z,22.10
2022-09-12T05:13:32.952Z,15.02
2022-09-12T05:16:01.581Z,17.55
2022-09-12T05:18:32.642Z,19.67
2022-09-12T05:21:01.256Z,17.40
2022-09-12T05:23:29.404Z,15.20
2022-09-12T05:25:58.685Z,13.13
2022-09-12T05:28:29.622Z,13.57
2022-09-12T05:31:04.065Z,17.58
2022-09-12T05:33:34.122Z,17.25
2022-09-12T05:36:02.334Z,13.50
2022-09-12T05:38:30.364Z,11.18
2022-09-12T05:41:04.780Z,19.05
2022-09-12T05:43:33.037Z,13.82
2022-09-12T05:46:05.480Z,14.63
2022-09-12T05:48:35.286Z,15.60
2022-09-12T05:51:03.665Z,12.65
2022-09-12T05:53:32.060Z,12.88
2022-09-12T05:56:07.389Z,14.77
2022-09-12T05:58:35.844Z,11.05
2022-09-12T06:01:07.342Z,11.00
2022-09-12T06:03:37.717Z,14.35
2022-09-12T06:06:06.498Z,15.77
2022-09-12T06:08:34.823Z,11.18
2022-09-12T06:11:03.464Z,10.43
2022-09-12T06:13:32.919Z,10.45
2022-09-12T06:16:05.382Z,12.93
2022-09-12T06:18:33.587Z,12.38
2022-09-12T06:21:05.335Z,13.57
2022-09-12T06:23:33.667Z,13.00
2022-09-12T06:26:01.818Z,18.38
2022-09-12T06:28:29.854Z,7.88
2022-09-12T06:31:04.587Z,12.45
2022-09-12T06:33:33.477Z,13.88
2022-09-12T06:36:12.071Z,8.95
2022-09-12T06:38:40.722Z,10.02
2022-09-12T06:41:09.717Z,11.23
2022-09-12T06:43:37.790Z,12.35
2022-09-12T06:46:06.093Z,15.30
2022-09-12T06:48:37.311Z,9.07
2022-09-12T06:51:11.303Z,9.95
2022-09-12T06:53:39.406Z,10.05
2022-09-12T06:56:08.557Z,10.63
2022-09-12T06:58:36.861Z,11.50
2022-09-12T07:01:05.224Z,10.20
2022-09-12T07:03:33.922Z,9.38
2022-09-12T07:06:04.242Z,10.27
2022-09-12T07:08:34.143Z,11.25
2022-09-12T07:11:08.936Z,12.50
2022-09-12T07:13:36.971Z,10.02
2022-09-12T07:16:05.445Z,10.90
2022-09-12T07:18:33.521Z,10.38
2022-09-12T07:21:02.155Z,11.70
2022-09-12T07:23:30.352Z,11.90
2022-09-12T07:26:00.542Z,11.30
2022-09-12T07:28:30.328Z,9.48
2022-09-12T07:30:58.557Z,13.73
2022-09-12T07:33:28.418Z,8.90
2022-09-12T07:35:56.442Z,64.95
2022-09-12T07:38:25.236Z,45.45
2022-09-12T07:40:53.611Z,43.00
2022-09-12T07:43:23.094Z,83.30
2022-09-12T07:45:56.389Z,77.20
2022-09-12T07:48:24.771Z,63.95
2022-09-12T07:50:59.838Z,79.22
2022-09-12T07:53:28.110Z,70.90
2022-09-12T07:55:56.403Z,69.07
2022-09-12T07:58:25.987Z,65.95
2022-09-12T08:00:54.111Z,79.00
2022-09-12T08:03:22.181Z,63.97
2022-09-12T08:05:50.222Z,60.42
2022-09-12T08:08:18.565Z,63.38
2022-09-12T08:10:46.675Z,57.17
2022-09-12T08:13:14.761Z,54.88
2022-09-12T08:15:44.268Z,51.28
2022-09-12T08:18:12.420Z,65.90
2022-09-12T08:20:40.494Z,55.20
2022-09-12T08:23:08.512Z,51.03
2022-09-12T08:25:36.629Z,46.75
2022-09-12T08:28:04.709Z,46.10
2022-09-12T08:30:32.771Z,54.78
2022-09-12T08:33:02.295Z,47.88
2022-09-12T08:35:30.339Z,42.80
2022-09-12T08:37:58.685Z,41.08
2022-09-12T08:40:26.750Z,41.45
2022-09-12T08:42:58.989Z,37.88
2022-09-12T08:45:29.896Z,42.67
2022-09-12T08:47:57.985Z,42.97
2022-09-12T08:50:27.685Z,45.33
2022-09-12T08:52:59.236Z,44.67
2022-09-12T08:55:33.382Z,40.47
2022-09-12T08:58:01.646Z,42.50
2022-09-12T09:00:38.059Z,40.35
2022-09-12T09:03:29.425Z,35.20
2022-09-12T09:06:01.659Z,30.00
2022-09-12T09:08:41.883Z,34.45
2022-09-12T09:11:20.948Z,34.20
2022-09-12T09:14:13.028Z,27.73
2022-09-12T09:16:41.942Z,37.35
2022-09-12T09:19:12.194Z,38.58
2022-09-12T09:21:44.663Z,37.65
2022-09-12T09:24:14.375Z,35.60
2022-09-12T09:26:46.331Z,25.23
2022-09-12T09:29:19.381Z,37.38
2022-09-12T09:31:49.030Z,30.08
2022-09-12T09:34:19.784Z,27.25
2022-09-12T09:36:52.482Z,30.80
2022-09-12T09:39:34.510Z,28.95
2022-09-12T09:42:26.781Z,25.90
2022-09-12T09:44:55.608Z,26.60
2022-09-12T09:47:23.739Z,24.15
2022-09-12T09:49:51.876Z,29.75
2022-09-12T09:52:25.436Z,25.48
2022-09-12T09:54:57.447Z,23.75
2022-09-12T09:57:46.872Z,27.58
2022-09-12T10:00:29.580Z,28.52
2022-09-12T10:03:23.102Z,23.00
2022-09-12T10:05:52.011Z,21.63
2022-09-12T10:08:26.320Z,36.78
2022-09-12T10:10:55.855Z,22.75
2022-09-12T10:13:27.016Z,19.27
2022-09-12T10:15:59.252Z,20.27
2022-09-12T10:18:35.666Z,20.90
2022-09-12T10:21:07.593Z,26.35
2022-09-12T10:23:37.765Z,24.58
2022-09-12T10:26:09.811Z,30.45
2022-09-12T10:28:39.329Z,28.00
2022-09-12T10:31:07.631Z,31.17
2022-09-12T10:33:37.940Z,25.25
2022-09-12T10:36:06.204Z,28.70
2022-09-12T10:38:34.431Z,29.65
2022-09-12T10:41:04.984Z,34.35
2022-09-12T10:43:37.306Z,33.70
2022-09-12T10:46:25.466Z,25.08
2022-09-12T10:49:13.150Z,28.13
2022-09-12T10:51:41.331Z,28.90
2022-09-12T10:54:10.251Z,28.20
2022-09-12T10:56:42.091Z,31.40
2022-09-12T10:59:20.375Z,26.25
2022-09-12T11:01:49.905Z,28.85
2022-09-12T11:04:24.374Z,29.25
2022-09-12T11:06:59.093Z,28.98
2022-09-12T11:09:29.429Z,31.73
2022-09-12T11:12:03.462Z,27.30
2022-09-12T11:14:41.206Z,30.23
2022-09-12T11:17:17.091Z,25.38
2022-09-12T11:19:51.436Z,26.50
2022-09-12T11:22:29.837Z,26.20
2022-09-12T11:25:12.741Z,28.10
2022-09-12T11:27:50.672Z,22.40
2022-09-12T11:30:19.190Z,22.02
2022-09-12T11:33:24.639Z,19.00
2022-09-12T11:35:55.433Z,25.42
2022-09-12T11:38:48.260Z,27.55
2022-09-12T11:41:18.493Z,24.10
2022-09-12T11:43:49.750Z,20.48
2022-09-12T11:46:20.373Z,19.17
2022-09-12T11:48:52.308Z,27.42
2022-09-12T11:51:21.222Z,22.70
2022-09-12T11:53:58.406Z,20.95
2022-09-12T11:56:26.619Z,22.75
2022-09-12T11:59:05.800Z,17.20
2022-09-12T12:01:41.286Z,17.27
2022-09-12T12:04:13.257Z,23.77
2022-09-12T12:06:49.009Z,16.30
2022-09-12T12:09:17.742Z,14.65
2022-09-12T12:11:48.847Z,14.90
2022-09-12T12:14:19.498Z,18.50
2022-09-12T12:16:47.533Z,12.68
2022-09-12T12:19:32.707Z,18.98
2022-09-12T12:22:10.038Z,15.75
2022-09-12T12:24:54.510Z,16.75
2022-09-12T12:27:26.658Z,11.45
2022-09-12T12:29:56.116Z,15.85
2022-09-12T12:32:27.381Z,15.15
2022-09-12T12:35:37.879Z,15.50
2022-09-12T12:38:06.778Z,18.55
2022-09-12T12:40:34.886Z,11.40
2022-09-12T12:43:15.881Z,13.55
2022-09-12T12:46:13.186Z,12.07
2022-09-12T12:49:10.244Z,15.95
2022-09-12T12:51:57.191Z,13.02
2022-09-12T12:54:29.917Z,12.35
2022-09-12T12:57:17.523Z,10.88
2022-09-12T12:59:50.249Z,12.52
2022-09-12T13:02:25.509Z,10.90
2022-09-12T13:04:53.784Z,10.20
2022-09-12T13:07:31.045Z,10.50
2022-09-12T13:09:59.487Z,8.93
2022-09-12T13:12:28.981Z,13.88
2022-09-12T13:14:58.381Z,9.68
2022-09-12T13:17:30.804Z,10.32
2022-09-12T13:20:27.717Z,11.15
2022-09-12T13:22:56.755Z,12.30
2022-09-12T13:25:31.904Z,9.88
2022-09-12T13:28:06.153Z,9.85
2022-09-12T13:30:35.430Z,8.52
2022-09-12T13:33:12.272Z,12.02
2022-09-12T13:35:44.565Z,8.10
2022-09-12T13:38:14.105Z,10.35
2022-09-12T13:40:45.930Z,8.52
2022-09-12T13:43:15.917Z,9.95
2022-09-12T13:45:44.740Z,11.38
2022-09-12T13:48:16.729Z,7.93
2022-09-12T13:50:48.674Z,7.60
2022-09-12T13:53:18.446Z,9.40
2022-09-12T13:55:48.171Z,7.40
2022-09-12T13:58:22.252Z,9.02
2022-09-12T14:01:02.071Z,9.75
2022-09-12T14:03:50.174Z,8.70
2022-09-12T14:06:27.619Z,7.80
2022-09-12T14:08:56.904Z,8.63
2022-09-12T14:11:29.792Z,11.18
2022-09-12T14:13:57.965Z,8.98
2022-09-12T14:16:27.146Z,7.25
2022-09-12T14:18:57.117Z,9.38
2022-09-12T14:21:33.994Z,6.75
2022-09-12T14:24:02.461Z,6.65
2022-09-12T14:26:33.432Z,8.48
2022-09-12T14:29:01.774Z,9.25
2022-09-12T14:31:31.342Z,7.40
2022-09-12T14:34:12.050Z,7.22
2022-09-12T14:36:43.388Z,6.40
2022-09-12T14:39:23.794Z,8.93
2022-09-12T14:41:52.104Z,8.35
2022-09-12T14:44:21.917Z,6.75
2022-09-12T14:46:49.989Z,7.80
2022-09-12T14:49:21.044Z,6.05
2022-09-12T14:51:55.578Z,7.13
2022-09-12T14:54:39.575Z,7.03
2022-09-12T14:57:09.255Z,7.05
2022-09-12T14:59:39.068Z,7.40
2022-09-12T15:02:20.541Z,7.32
2022-09-12T15:04:51.098Z,6.78
2022-09-12T15:07:26.091Z,7.82
2022-09-12T15:09:54.271Z,5.25
2022-09-12T15:12:22.357Z,6.97
2022-09-12T15:14:50.457Z,6.93
2022-09-12T15:17:18.546Z,6.50
2022-09-12T15:19:46.644Z,6.63
2022-09-12T15:22:16.104Z,7.30
2022-09-12T15:24:44.232Z,7.93
2022-09-12T15:27:12.926Z,6.85
2022-09-12T15:29:40.986Z,5.40
2022-09-12T15:32:12.331Z,5.13
2022-09-12T15:34:40.448Z,6.72
2022-09-12T15:37:10.924Z,6.72
2022-09-12T15:39:40.855Z,5.63
2022-09-12T15:42:10.194Z,5.68
2022-09-12T15:44:38.291Z,6.47
2022-09-12T15:47:06.579Z,6.72
2022-09-12T15:49:34.667Z,6.25
2022-09-12T15:52:03.148Z,8.70
2022-09-12T15:54:31.194Z,5.15
2022-09-12T15:57:00.672Z,5.05
2022-09-12T15:59:28.755Z,7.07
2022-09-12T16:01:56.964Z,5.97
2022-09-12T16:04:25.693Z,5.15
2022-09-12T16:06:54.128Z,6.03
2022-09-12T16:09:22.430Z,6.35
2022-09-12T16:11:50.691Z,6.85
2022-09-12T16:14:20.397Z,4.88
2022-09-12T16:16:53.083Z,5.95
2022-09-12T16:19:21.347Z,5.30
2022-09-12T16:21:49.424Z,5.20
2022-09-12T16:24:17.536Z,5.18
2022-09-12T16:26:45.699Z,5.53
2022-09-12T16:29:13.985Z,4.88
2022-09-12T16:31:43.386Z,5.18
2022-09-12T16:34:11.946Z,4.97
2022-09-12T16:36:40.060Z,4.75
2022-09-12T16:39:08.134Z,4.78
2022-09-12T16:41:36.216Z,4.20
2022-09-12T16:44:04.518Z,4.32
2022-09-12T16:46:32.653Z,6.57
2022-09-12T16:49:02.180Z,4.68
2022-09-12T16:51:32.640Z,4.68
2022-09-12T16:54:00.758Z,4.68
2022-09-12T16:56:28.934Z,4.45
2022-09-12T16:58:57.124Z,4.63
2022-09-12T17:01:26.086Z,5.05
2022-09-12T17:03:54.877Z,4.32
2022-09-12T17:06:25.184Z,4.18
2022-09-12T17:08:54.068Z,5.88
2022-09-12T17:11:23.097Z,4.80
2022-09-12T17:14:07.473Z,4.88
2022-09-12T17:16:36.427Z,5.55
2022-09-12T17:19:04.699Z,5.60
2022-09-12T17:21:34.241Z,4.07
2022-09-12T17:24:03.347Z,7.68
2022-09-12T17:26:31.592Z,7.57
2022-09-12T17:28:59.667Z,5.38
2022-09-12T17:31:27.849Z,6.75
2022-09-12T17:33:58.108Z,4.15
2022-09-12T17:36:26.644Z,8.88
2022-09-12T17:38:56.271Z,4.88
2022-09-12T17:41:25.438Z,4.80
2022-09-12T17:43:55.648Z,4.05
2022-09-12T17:46:24.310Z,5.50
2022-09-12T17:48:53.545Z,6.47
2022-09-12T17:51:22.033Z,5.30
2022-09-12T17:53:50.127Z,6.75
2022-09-12T17:56:20.323Z,6.45
2022-09-12T17:58:50.645Z,8.40
2022-09-12T18:01:36.362Z,5.25
2022-09-12T18:04:04.824Z,6.65
2022-09-12T18:06:33.561Z,6.15
2022-09-12T18:09:02.360Z,6.95
2022-09-12T18:11:32.041Z,5.25
2022-09-12T18:14:00.285Z,5.40
2022-09-12T18:16:29.349Z,8.02
2022-09-12T18:18:57.931Z,6.18
2022-09-12T18:21:28.540Z,7.75
2022-09-12T18:23:57.452Z,4.65
2022-09-12T18:26:26.724Z,4.32
2022-09-12T18:28:56.423Z,4.40
2022-09-12T18:31:26.618Z,8.57
2022-09-12T18:33:55.142Z,8.30
2022-09-12T18:36:23.521Z,4.63
2022-09-12T18:38:51.735Z,5.38
2022-09-12T18:41:20.711Z,5.28
2022-09-12T18:43:51.149Z,5.25
2022-09-12T18:46:20.804Z,5.63
2022-09-12T18:48:49.045Z,7.07
2022-09-12T18:51:17.886Z,6.30
2022-09-12T18:53:49.872Z,4.50
2022-09-12T18:56:18.431Z,4.60
2022-09-12T18:58:49.952Z,5.07
2022-09-12T19:01:21.762Z,4.72
2022-09-12T19:03:52.129Z,4.65
2022-09-12T19:06:21.355Z,5.35
2022-09-12T19:08:49.861Z,4.90
2022-09-12T19:11:18.318Z,4.93
2022-09-12T19:13:47.200Z,6.38
2022-09-12T19:16:16.855Z,6.13
2022-09-12T19:18:45.449Z,4.30
2022-09-12T19:21:16.224Z,4.82
2022-09-12T19:23:45.289Z,8.18
2022-09-12T19:26:14.267Z,7.10
2022-09-12T19:28:42.763Z,4.07
2022-09-12T19:31:11.897Z,4.80
2022-09-12T19:33:40.057Z,5.40
2022-09-12T19:36:22.167Z,6.50
2022-09-12T19:38:57.106Z,8.52
2022-09-12T19:41:26.388Z,8.02
2022-09-12T19:43:55.705Z,4.72
2022-09-12T19:46:24.537Z,4.63
2022-09-12T19:48:58.901Z,5.20
2022-09-12T19:51:27.230Z,4.75
2022-09-12T19:53:56.703Z,5.57
2022-09-12T19:56:24.784Z,6.47
2022-09-12T19:58:56.351Z,5.25
2022-09-12T20:01:28.061Z,5.85
2022-09-12T20:03:56.719Z,6.80
2022-09-12T20:06:24.903Z,8.80
2022-09-12T20:08:52.985Z,7.93
2022-09-12T20:11:23.731Z,9.50
2022-09-12T20:13:51.986Z,9.80
2022-09-12T20:16:22.299Z,8.75
2022-09-12T20:18:54.006Z,10.65
2022-09-12T20:21:25.044Z,7.10
2022-09-12T20:23:53.263Z,9.75
2022-09-12T20:26:24.926Z,7.80
2022-09-12T20:28:52.997Z,10.82
2022-09-12T20:31:21.165Z,9.30
2022-09-12T20:33:51.713Z,9.65
2022-09-12T20:36:21.290Z,10.88
2022-09-12T20:38:50.077Z,11.27
2022-09-12T20:41:18.453Z,9.38
2022-09-12T20:43:50.061Z,8.85
2022-09-12T20:46:21.611Z,9.85
2022-09-12T20:48:50.556Z,7.70
2022-09-12T20:51:18.908Z,10.82
2022-09-12T20:53:47.160Z,9.95
2022-09-12T20:56:15.312Z,9.65
2022-09-12T20:58:44.626Z,8.50
2022-09-12T21:01:15.915Z,11.07
2022-09-12T21:03:44.631Z,12.68
2022-09-12T21:06:13.515Z,14.20
2022-09-12T21:08:41.638Z,15.35
2022-09-12T21:11:09.783Z,20.55
2022-09-12T21:13:37.936Z,21.13
2022-09-12T21:16:06.992Z,19.08
2022-09-12T21:18:36.682Z,20.05
2022-09-12T21:21:05.069Z,24.00
2022-09-12T21:23:33.550Z,25.75
2022-09-12T21:26:01.755Z,20.75
2022-09-12T21:28:29.748Z,21.10
2022-09-12T21:30:57.792Z,23.17
2022-09-12T21:33:25.883Z,24.60
2022-09-12T21:35:55.278Z,25.02
2022-09-12T21:38:23.267Z,31.80
2022-09-12T21:40:51.313Z,25.20
2022-09-12T21:43:19.500Z,22.17
2022-09-12T21:45:47.550Z,14.48
2022-09-12T21:48:15.558Z,20.88
2022-09-12T21:50:43.692Z,17.20
2022-09-12T21:53:13.211Z,15.63
2022-09-12T21:55:41.241Z,14.52
2022-09-12T21:58:09.255Z,18.23
2022-09-12T22:00:37.335Z,15.60
2022-09-12T22:03:05.687Z,14.20
2022-09-12T22:05:34.382Z,13.68
2022-09-12T22:08:02.926Z,13.35
2022-09-12T22:10:32.290Z,14.55
2022-09-12T22:13:00.422Z,13.57
2022-09-12T22:15:43.836Z,14.25
2022-09-12T22:18:11.839Z,15.32
2022-09-12T22:20:39.796Z,16.00
2022-09-12T22:23:25.378Z,19.23
2022-09-12T22:25:56.046Z,12.57
2022-09-12T22:28:24.479Z,13.40
2022-09-12T22:30:54.358Z,15.80
2022-09-12T22:33:22.464Z,16.73
2022-09-12T22:35:50.433Z,13.45
2022-09-12T22:38:18.510Z,16.13
2022-09-12T22:40:46.534Z,16.38
2022-09-12T22:43:15.932Z,15.32
2022-09-12T22:45:43.929Z,15.50
2022-09-12T22:48:11.925Z,11.90
2022-09-12T22:50:39.908Z,11.60
2022-09-12T22:53:07.910Z,14.45
2022-09-12T22:55:35.943Z,13.40
2022-09-12T22:58:04.812Z,13.38
2022-09-12T23:00:34.606Z,11.82
2022-09-12T23:03:02.702Z,11.63
2022-09-12T23:05:30.804Z,17.75
2022-09-12T23:07:58.967Z,12.40
2022-09-12T23:10:27.545Z,10.40
2022-09-12T23:12:55.701Z,14.93
2022-09-12T23:15:23.718Z,15.73
2022-09-12T23:17:53.103Z,11.88
2022-09-12T23:20:21.159Z,12.20
2022-09-12T23:22:49.149Z,13.85
2022-09-12T23:25:17.703Z,10.40
2022-09-12T23:27:45.701Z,17.38
2022-09-12T23:30:13.898Z,10.18
2022-09-12T23:32:41.906Z,10.80
2022-09-12T23:35:11.279Z,11.40
2022-09-12T23:37:39.302Z,10.73
2022-09-12T23:40:09.064Z,11.90
2022-09-12T23:42:37.517Z,11.32
2022-09-12T23:45:05.949Z,11.38
2022-09-12T23:47:33.934Z,10.55
2022-09-12T23:50:01.962Z,11.50
2022-09-12T23:52:31.341Z,11.73
2022-09-12T23:54:59.321Z,10.23
2022-09-12T23:57:27.667Z,10.45
2022-09-12T23:59:55.689Z,13.27
